Time;durP1;ratioP1;P1;durP2;ratioP2;P2;SDS_P1;SDS_P2;PMS_P1;PMS_P2;Temp;Humidity;BMP_temperature;BMP_pressure;BME280_temperature;BME280_humidity;BME280_pressure;Samples;Min_cycle;Max_cycle;Signal;HPM_P1;HPM_P2
2022/01/18 00:01:33;;;;;;;8.25;3.40;;;;;;;5.04;58.28;100073.03;5110532;28;20035;-21
2022/01/18 00:04:00;;;;;;;6.55;3.33;;;;;;;4.95;57.71;100067.03;5110508;28;20068;-20
2022/01/18 00:06:25;;;;;;;8.13;3.70;;;;;;;5.05;57.39;100085.28;5110409;28;20034;-21
2022/01/18 00:08:51;;;;;;;7.30;3.33;;;;;;;5.04;57.77;100086.25;5110003;28;20035;-21
2022/01/18 00:11:19;;;;;;;8.20;3.30;;;;;;;5.03;58.08;100101.31;5091708;28;20031;-21
2022/01/18 00:13:47;;;;;;;5.82;3.45;;;;;;;4.97;59.10;100098.56;5110172;28;20032;-21
2022/01/18 00:16:36;;;;;;;;;;;;;;;5.00;59.16;100111.41;5092852;28;20039;-21
2022/01/18 00:19:07;;;;;;;6.25;2.90;;;;;;;4.90;59.59;100089.72;5094754;28;19919;-21
2022/01/18 00:24:17;;;;;;;5.93;3.03;;;;;;;4.95;60.28;100101.41;5093558;28;20680;-20
2022/01/18 00:26:43;;;;;;;7.47;3.35;;;;;;;4.81;60.78;100089.81;5091615;28;20070;-21
2022/01/18 00:29:13;;;;;;;6.50;3.38;;;;;;;4.91;60.29;100112.50;5091369;28;20671;-22
2022/01/18 00:32:03;;;;;;;6.18;3.22;;;;;;;4.91;60.38;100112.50;5109673;28;20093;-20
2022/01/18 00:34:33;;;;;;;6.05;3.35;;;;;;;4.85;61.28;100100.84;5109939;28;20034;-21
2022/01/18 00:39:34;;;;;;;4.45;2.47;;;;;;;4.72;60.60;100101.47;5109746;28;20027;-20
2022/01/18 00:41:59;;;;;;;5.80;3.00;;;;;;;4.71;61.33;100091.88;5109518;28;20027;-21
2022/01/18 00:44:25;;;;;;;6.28;2.50;;;;;;;4.70;61.01;100103.47;5090987;28;20023;-20
2022/01/18 00:46:50;;;;;;;7.32;3.20;;;;;;;4.80;61.27;100105.81;5109533;28;20032;-20
2022/01/18 00:49:16;;;;;;;7.72;3.42;;;;;;;4.88;60.85;100108.38;5109132;28;20559;-20
2022/01/18 00:51:44;;;;;;;5.38;2.58;;;;;;;4.91;60.80;100109.88;5109477;28;20035;-21
2022/01/18 00:54:13;;;;;;;6.97;2.78;;;;;;;4.95;61.07;100111.16;5109344;28;20103;-20
2022/01/18 00:56:40;;;;;;;4.85;2.33;;;;;;;5.00;60.69;100111.41;5109149;28;20047;-21
2022/01/18 00:59:06;;;;;;;8.00;2.50;;;;;;;4.90;61.68;100076.50;5091232;28;20643;-20
2022/01/18 01:01:34;;;;;;;4.47;2.47;;;;;;;5.18;61.21;100119.00;5090965;28;20039;-20
2022/01/18 01:04:02;;;;;;;4.43;2.20;;;;;;;5.11;61.22;100116.25;5091147;28;20072;-20
2022/01/18 01:06:28;;;;;;;5.05;2.65;;;;;;;5.06;61.14;100100.13;5091120;28;20392;-21
2022/01/18 01:08:53;;;;;;;5.15;2.33;;;;;;;5.10;61.08;100138.41;5109017;28;20035;-21
2022/01/18 01:11:20;;;;;;;4.63;2.38;;;;;;;5.20;60.64;100128.38;5090248;28;20088;-21
2022/01/18 01:13:48;;;;;;;3.88;2.10;;;;;;;5.38;60.70;100140.44;5109098;28;20723;-20
2022/01/18 01:19:05;;;;;;;4.13;2.08;;;;;;;5.41;60.18;100140.88;5108823;28;20120;-20
2022/01/18 01:35:06;;;;;;;4.07;1.92;;;;;;;5.44;60.92;100131.75;5090839;28;20030;-21
2022/01/18 01:45:20;;;;;;;3.30;1.83;;;;;;;5.55;59.26;100144.50;5108423;28;20038;-20
2022/01/18 01:47:50;;;;;;;3.20;1.60;;;;;;;5.64;59.10;100177.00;5108455;28;20024;-20
2022/01/18 01:50:18;;;;;;;3.67;2.20;;;;;;;5.64;62.17;100183.09;5108561;28;20476;-20
2022/01/18 01:52:45;;;;;;;3.92;2.00;;;;;;;5.12;65.83;100199.84;5090332;28;20069;-21
2022/01/18 01:55:10;;;;;;;5.00;2.22;;;;;;;4.89;68.50;100188.50;5107954;28;20084;-21
2022/01/18 01:57:36;;;;;;;3.53;1.75;;;;;;;5.00;66.27;100209.19;5089738;28;20028;-21
2022/01/18 02:00:09;;;;;;;4.35;1.75;;;;;;;5.09;65.12;100210.78;5108139;28;20031;-21
2022/01/18 02:02:35;;;;;;;3.40;1.58;;;;;;;5.00;66.09;100202.09;5108214;28;20027;-21
2022/01/18 02:05:00;;;;;;;3.38;1.90;;;;;;;4.83;68.42;100222.56;5089866;28;20039;-21
2022/01/18 02:07:26;;;;;;;3.13;1.92;;;;;;;4.52;69.76;100208.63;5107924;28;20024;-21
2022/01/18 02:09:51;;;;;;;3.45;1.90;;;;;;;4.48;70.85;100213.41;5089308;28;20032;-21
2022/01/18 02:12:17;;;;;;;4.15;1.83;;;;;;;4.28;70.81;100209.59;5108346;28;20030;-20
2022/01/18 02:14:47;;;;;;;5.05;2.15;;;;;;;4.30;70.02;100229.53;5108000;28;20031;-21
2022/01/18 02:22:40;;;;;;;5.47;1.75;;;;;;;4.30;68.60;100239.28;5092352;28;20123;-21
2022/01/18 02:25:06;;;;;;;2.40;1.40;;;;;;;4.26;68.06;100238.78;5107277;28;20028;-23
2022/01/18 02:27:31;;;;;;;4.47;1.77;;;;;;;4.19;68.29;100264.25;5107835;28;20032;-21
2022/01/18 02:29:57;;;;;;;4.68;1.50;;;;;;;4.11;66.12;100264.28;5107494;28;20038;-21
2022/01/18 02:32:22;;;;;;;2.20;1.20;;;;;;;3.97;64.66;100264.00;5107411;28;20030;-22
2022/01/18 02:34:48;;;;;;;3.08;1.38;;;;;;;4.03;63.52;100263.31;5107150;28;20027;-21
2022/01/18 02:37:14;;;;;;;3.38;0.93;;;;;;;3.91;62.60;100264.69;5107241;28;20693;-21
2022/01/18 02:39:40;;;;;;;1.23;0.80;;;;;;;3.97;62.65;100277.19;5088919;28;20027;-21
2022/01/18 02:42:07;;;;;;;1.85;0.82;;;;;;;3.96;61.59;100303.75;5107276;28;20027;-22
2022/01/18 02:44:33;;;;;;;1.35;0.60;;;;;;;3.81;61.01;100277.25;5107322;28;20453;-21
2022/01/18 02:46:58;;;;;;;2.25;0.60;;;;;;;3.85;59.97;100297.03;5106445;28;20020;-21
2022/01/18 02:49:24;;;;;;;0.90;0.60;;;;;;;3.99;57.56;100304.22;5107205;28;20032;-21
2022/01/18 02:51:50;;;;;;;2.08;0.77;;;;;;;4.20;55.61;100331.88;5107436;28;20023;-20
2022/01/18 02:54:17;;;;;;;1.98;0.70;;;;;;;4.29;55.00;100354.63;5088885;28;20034;-21
2022/01/18 02:56:50;;;;;;;1.42;0.60;;;;;;;4.44;55.23;100357.38;5088852;28;20388;-21
2022/01/18 02:59:23;;;;;;;1.13;0.60;;;;;;;4.22;54.89;100372.94;5107278;28;20107;-22
2022/01/18 03:04:39;;;;;;;3.53;0.60;;;;;;;4.30;56.43;100382.66;5107543;28;20472;-20
2022/01/18 03:07:05;;;;;;;1.35;0.80;;;;;;;4.09;54.04;100380.56;5106907;28;20036;-21
2022/01/18 03:09:31;;;;;;;2.85;0.90;;;;;;;4.30;53.06;100401.13;5089032;28;20061;-21
2022/01/18 03:11:56;;;;;;;1.83;0.98;;;;;;;4.27;52.60;100412.06;5088472;28;20038;-21
2022/01/18 03:14:22;;;;;;;2.90;0.90;;;;;;;4.16;52.72;100415.03;5106818;28;20027;-20
2022/01/18 03:16:47;;;;;;;1.67;0.75;;;;;;;4.09;51.33;100445.75;5107244;28;20036;-21
2022/01/18 03:19:12;;;;;;;2.78;0.90;;;;;;;4.08;49.68;100465.19;5088235;28;20051;-20
2022/01/18 03:21:38;;;;;;;2.00;0.95;;;;;;;4.14;50.11;100477.72;5107047;28;20028;-20
2022/01/18 03:24:32;;;;;;;2.80;0.85;;;;;;;4.14;48.26;100483.81;5106767;28;20487;-22
2022/01/18 03:29:42;;;;;;;2.78;1.05;;;;;;;4.25;48.85;100497.66;5107090;28;20042;-22
2022/01/18 03:32:08;;;;;;;1.70;1.00;;;;;;;4.33;47.37;100492.38;5106748;28;20032;-21
2022/01/18 03:34:33;;;;;;;2.03;0.90;;;;;;;4.30;48.59;100500.66;5106959;28;20057;-20
2022/01/18 03:36:59;;;;;;;1.77;0.82;;;;;;;4.31;45.98;100518.97;5106617;28;20047;-20
2022/01/18 03:39:24;;;;;;;3.95;1.77;;;;;;;4.30;45.82;100527.06;5088776;28;20035;-21
2022/01/18 03:42:28;;;;;;;1.38;0.90;;;;;;;4.16;47.74;100552.28;5106984;28;20042;-20
2022/01/18 03:44:35;;;;;;;1.90;0.93;;;;;;;4.16;47.65;100547.03;5105275;28;20062;-21
2022/01/18 03:47:01;;;;;;;1.25;0.57;;;;;;;4.21;48.29;100547.38;5088297;28;20093;-21
2022/01/18 03:49:27;;;;;;;3.28;0.98;;;;;;;4.23;47.90;100561.22;5088637;28;20063;-21
2022/01/18 03:51:53;;;;;;;1.92;0.80;;;;;;;4.13;47.69;100561.38;5106528;28;20042;-20
2022/01/18 03:54:23;;;;;;;2.38;0.75;;;;;;;4.00;47.20;100575.06;5106903;28;20023;-21
2022/01/18 03:56:48;;;;;;;1.83;0.80;;;;;;;3.88;46.13;100565.78;5088996;28;20465;-21
2022/01/18 03:59:13;;;;;;;1.38;0.70;;;;;;;3.74;46.99;100571.69;5089829;28;20032;-21
2022/01/18 04:01:39;;;;;;;1.73;0.80;;;;;;;3.80;47.50;100594.78;5110372;28;20688;-20
2022/01/18 04:04:04;;;;;;;2.60;0.90;;;;;;;3.38;48.19;100571.94;5110167;28;20027;-21
2022/01/18 04:06:30;;;;;;;1.35;1.00;;;;;;;3.33;48.58;100588.25;5091753;28;20062;-21
2022/01/18 04:08:55;;;;;;;2.28;0.73;;;;;;;3.43;49.03;100585.47;5110190;28;20399;-21
2022/01/18 04:11:21;;;;;;;3.40;1.10;;;;;;;3.32;48.72;100585.75;5110098;28;20032;-22
2022/01/18 04:13:46;;;;;;;1.35;0.70;;;;;;;3.38;48.36;100611.50;5091674;28;20027;-21
2022/01/18 04:16:12;;;;;;;3.13;1.10;;;;;;;3.61;48.23;100623.09;5109887;28;20027;-21
2022/01/18 04:26:57;;;;;;;4.03;1.40;;;;;;;3.55;48.53;100652.75;5110269;28;20123;-21
2022/01/18 04:29:23;;;;;;;2.67;1.40;;;;;;;3.27;49.65;100641.59;5109411;28;20122;-21
2022/01/18 04:31:48;;;;;;;3.80;1.77;;;;;;;3.11;49.27;100652.06;5109771;28;20027;-21
2022/01/18 04:34:14;;;;;;;3.08;1.20;;;;;;;2.96;49.62;100657.03;5091062;28;20476;-20
2022/01/18 04:36:39;;;;;;;3.42;1.17;;;;;;;2.90;49.68;100660.28;5090749;28;20036;-21
2022/01/18 04:39:05;;;;;;;3.40;0.90;;;;;;;2.90;49.81;100652.41;5109107;28;20032;-21
2022/01/18 04:41:31;;;;;;;3.78;1.23;;;;;;;2.94;49.74;100662.50;5109357;28;20092;-21
2022/01/18 04:49:12;;;;;;;3.20;1.00;;;;;;;2.59;50.43;100658.09;5109655;28;20046;-22
2022/01/18 04:51:38;;;;;;;3.55;1.30;;;;;;;2.39;49.76;100647.75;5109376;28;20031;-21
2022/01/18 04:54:06;;;;;;;3.50;1.23;;;;;;;2.39;49.65;100657.41;5109150;28;20032;-22
2022/01/18 04:59:01;;;;;;;2.72;1.10;;;;;;;2.40;49.65;100670.44;5109167;28;20065;-20
2022/01/18 05:01:27;;;;;;;3.70;1.10;;;;;;;2.43;48.74;100685.09;5109659;28;20066;-20
2022/01/18 05:03:52;;;;;;;4.05;1.50;;;;;;;2.57;48.41;100696.91;5109254;28;20035;-21
2022/01/18 05:06:19;;;;;;;5.13;1.48;;;;;;;2.55;47.30;100693.59;5109149;28;20032;-20
2022/01/18 05:08:46;;;;;;;2.25;1.10;;;;;;;2.76;47.31;100717.00;5108855;28;20518;-20
2022/01/18 05:11:14;;;;;;;1.98;1.00;;;;;;;2.77;46.13;100721.28;5108122;28;20073;-21
2022/01/18 05:14:05;;;;;;;2.40;1.17;;;;;;;2.74;45.73;100722.44;5109107;28;20027;-21
2022/01/18 05:19:24;;;;;;;2.85;1.10;;;;;;;2.57;46.74;100717.97;5090930;28;20083;-22
2022/01/18 05:24:18;;;;;;;;;;;;;;;2.35;47.10;100725.34;5109311;28;20040;-21
2022/01/18 05:26:44;;;;;;;6.22;3.40;;;;;;;2.15;48.01;100729.09;5108557;28;19919;-21
2022/01/18 05:29:09;;;;;;;5.18;1.90;;;;;;;1.97;48.22;100714.06;5108455;28;20039;-20
2022/01/18 05:31:34;;;;;;;4.07;1.23;;;;;;;2.02;47.98;100734.69;5108510;28;20038;-21
2022/01/18 05:34:00;;;;;;;2.60;1.20;;;;;;;1.92;47.57;100726.00;5108429;28;20032;-21
2022/01/18 05:36:25;;;;;;;3.13;1.08;;;;;;;2.06;46.49;100743.94;5108562;28;20144;-20
2022/01/18 05:38:51;;;;;;;1.98;1.23;;;;;;;2.03;46.98;100746.06;5108636;28;20027;-20
2022/01/18 05:41:16;;;;;;;2.80;0.98;;;;;;;2.04;46.73;100763.47;5108436;28;20032;-20
2022/01/18 05:43:42;;;;;;;3.08;1.00;;;;;;;2.04;45.67;100742.44;5108462;28;20027;-21
2022/01/18 05:46:07;;;;;;;2.28;0.80;;;;;;;2.21;44.48;100771.41;5108921;28;20529;-21
2022/01/18 05:48:33;;;;;;;1.50;0.70;;;;;;;2.41;44.63;100787.94;5108386;28;20518;-21
2022/01/18 05:50:59;;;;;;;3.50;1.40;;;;;;;2.59;45.00;100797.66;5108255;28;20031;-21
2022/01/18 05:53:32;;;;;;;17.48;6.75;;;;;;;2.69;46.13;100819.47;5108460;28;20031;-21
2022/01/18 05:55:58;;;;;;;2.70;0.90;;;;;;;2.37;45.83;100823.44;5108158;28;20100;-21
2022/01/18 05:58:24;;;;;;;4.43;1.80;;;;;;;2.48;46.44;100832.09;5107973;28;20039;-20
2022/01/18 06:00:52;;;;;;;3.30;2.00;;;;;;;2.18;46.53;100797.19;5107907;28;20499;-21
2022/01/18 06:03:32;;;;;;;8.23;5.30;;;;;;;2.54;46.66;100828.88;5107936;28;20667;-21
2022/01/18 06:08:42;;;;;;;6.63;3.70;;;;;;;2.40;47.05;100848.63;5107902;28;20051;-20
2022/01/18 06:11:07;;;;;;;5.28;3.03;;;;;;;2.31;47.19;100845.06;5107728;28;20055;-20
2022/01/18 06:13:33;;;;;;;9.02;3.08;;;;;;;2.16;47.31;100849.13;5089228;28;20106;-21
2022/01/18 06:15:58;;;;;;;5.30;2.05;;;;;;;2.21;47.78;100846.91;5107969;28;20085;-21
2022/01/18 06:18:24;;;;;;;6.15;2.83;;;;;;;2.17;48.33;100850.81;5089432;28;20047;-20
2022/01/18 06:20:49;;;;;;;6.50;3.63;;;;;;;2.03;48.58;100841.59;5107319;28;20028;-20
2022/01/18 06:23:15;;;;;;;5.13;3.05;;;;;;;1.86;48.85;100834.44;5107408;28;20036;-20
2022/01/18 06:25:41;;;;;;;8.30;3.05;;;;;;;1.84;48.22;100857.41;5107716;28;20035;-21
2022/01/18 06:28:06;;;;;;;9.38;2.97;;;;;;;1.78;48.73;100858.84;5107676;28;20568;-21
2022/01/18 06:30:32;;;;;;;7.40;3.83;;;;;;;1.64;49.55;100836.44;5108060;28;20035;-21
2022/01/18 06:32:57;;;;;;;6.68;3.08;;;;;;;1.96;49.32;100845.75;5089235;28;20039;-20
2022/01/18 06:35:23;;;;;;;4.07;1.83;;;;;;;1.84;49.46;100837.22;5107641;28;20505;-21
2022/01/18 06:37:48;;;;;;;3.55;1.65;;;;;;;1.90;50.08;100857.69;5107643;28;20419;-20
2022/01/18 06:40:14;;;;;;;8.80;2.50;;;;;;;1.99;49.59;100861.25;5107456;28;20034;-21
2022/01/18 06:42:39;;;;;;;5.95;2.50;;;;;;;2.09;49.38;100855.97;5107178;28;20042;-20
2022/01/18 06:45:05;;;;;;;5.60;2.70;;;;;;;2.25;48.78;100861.44;5107426;28;20431;-21
2022/01/18 06:47:31;;;;;;;5.38;2.45;;;;;;;2.44;48.24;100862.34;5088933;28;20084;-22
2022/01/18 06:49:56;;;;;;;6.15;3.55;;;;;;;2.50;48.93;100854.66;5107484;28;20491;-21
2022/01/18 06:52:22;;;;;;;5.03;2.25;;;;;;;2.65;47.48;100862.06;5107228;28;20039;-21
2022/01/18 06:54:48;;;;;;;2.58;1.27;;;;;;;2.83;46.49;100856.84;5107222;28;20016;-21
2022/01/18 06:57:13;;;;;;;2.28;1.02;;;;;;;2.83;46.31;100872.66;5106694;28;20027;-21
2022/01/18 06:59:38;;;;;;;1.65;1.00;;;;;;;2.95;45.97;100868.81;5107545;28;20483;-20
2022/01/18 07:02:04;;;;;;;3.10;1.25;;;;;;;2.95;45.73;100871.47;5107495;28;20110;-21
2022/01/18 07:04:29;;;;;;;4.40;1.80;;;;;;;3.00;45.22;100885.00;5089205;28;20414;-20
2022/01/18 07:06:55;;;;;;;3.28;1.20;;;;;;;2.94;44.99;100898.75;5107270;28;20031;-22
2022/01/18 07:09:23;;;;;;;3.35;1.30;;;;;;;2.78;44.38;100871.28;5088684;28;20035;-21
2022/01/18 07:11:52;;;;;;;3.47;1.65;;;;;;;3.10;45.07;100893.66;5107000;28;20505;-21
2022/01/18 07:14:17;;;;;;;1.50;0.77;;;;;;;3.09;43.94;100891.19;5107036;28;20495;-21
2022/01/18 07:16:43;;;;;;;3.30;1.20;;;;;;;3.21;41.37;100917.19;5107314;28;20035;-21
2022/01/18 07:19:08;;;;;;;2.58;1.20;;;;;;;3.42;41.93;100926.59;5106815;28;20051;-21
2022/01/18 07:21:33;;;;;;;2.88;0.90;;;;;;;3.31;42.85;100937.34;5107482;28;20040;-20
2022/01/18 07:24:14;;;;;;;1.58;0.85;;;;;;;3.49;42.90;100956.66;5106939;28;20039;-21
2022/01/18 07:26:40;;;;;;;2.10;1.20;;;;;;;3.48;42.65;100938.34;5107051;28;20050;-21
2022/01/18 07:29:05;;;;;;;3.88;1.30;;;;;;;3.32;41.99;100939.03;5107015;28;20423;-20
2022/01/18 07:31:31;;;;;;;2.13;1.23;;;;;;;3.47;41.32;100955.16;5107009;28;20042;-22
2022/01/18 07:33:56;;;;;;;2.22;1.23;;;;;;;3.45;43.02;100944.75;5110010;28;20112;-20
2022/01/18 07:36:22;;;;;;;4.07;1.50;;;;;;;3.51;42.90;100928.31;5110925;28;20047;-21
2022/01/18 07:38:47;;;;;;;5.03;1.92;;;;;;;3.48;42.38;100938.34;5111073;28;20035;-20
2022/01/18 07:41:13;;;;;;;3.35;1.52;;;;;;;3.45;42.93;100943.91;5110599;28;20035;-20
2022/01/18 07:43:40;;;;;;;3.83;1.20;;;;;;;3.52;42.62;100935.25;5111089;28;20507;-20
2022/01/18 07:46:05;;;;;;;2.88;1.40;;;;;;;3.80;43.92;100943.91;5110949;28;20061;-21
2022/01/18 07:48:31;;;;;;;3.17;1.52;;;;;;;3.86;43.43;100971.47;5110755;28;20035;-25
2022/01/18 07:50:58;;;;;;;3.17;0.90;;;;;;;3.80;42.07;100974.72;5110683;28;20027;-21
2022/01/18 07:53:24;;;;;;;3.20;1.10;;;;;;;3.77;42.48;100969.75;5110502;28;20138;-21
2022/01/18 07:55:49;;;;;;;5.05;1.48;;;;;;;4.04;42.48;101008.41;5110861;28;20116;-21
2022/01/18 07:58:15;;;;;;;5.03;1.52;;;;;;;4.17;41.93;101015.94;5110569;28;20735;-20
2022/01/18 08:00:41;;;;;;;3.88;1.52;;;;;;;4.37;42.96;101020.06;5110574;28;20068;-21
2022/01/18 08:03:06;;;;;;;4.05;1.23;;;;;;;4.65;41.73;101026.97;5092115;28;20032;-20
2022/01/18 08:05:31;;;;;;;2.97;1.27;;;;;;;4.56;42.82;101018.19;5110327;28;20067;-21
2022/01/18 08:07:57;;;;;;;3.35;1.38;;;;;;;4.58;42.36;101014.41;5110200;28;20097;-21
2022/01/18 08:10:29;;;;;;;3.30;1.10;;;;;;;4.75;41.40;101041.72;5110444;28;20066;-21
2022/01/18 08:12:55;;;;;;;3.65;1.40;;;;;;;4.57;40.43;101019.81;5110499;28;20043;-22
2022/01/18 08:15:23;;;;;;;2.95;1.27;;;;;;;4.76;41.55;101019.63;5110077;28;20032;-20
2022/01/18 08:17:49;;;;;;;2.55;0.90;;;;;;;4.71;41.16;101021.91;5110137;28;20047;-20
2022/01/18 08:20:14;;;;;;;3.03;1.30;;;;;;;4.94;41.10;101043.31;5109892;28;20060;-21
2022/01/18 08:22:43;;;;;;;3.75;1.35;;;;;;;4.96;40.23;101029.94;5109791;28;20544;-20
2022/01/18 08:25:09;;;;;;;5.28;2.05;;;;;;;5.01;40.80;101032.97;5109975;28;20104;-21
2022/01/18 08:27:35;;;;;;;2.50;0.90;;;;;;;4.78;38.85;101025.56;5091790;28;20024;-21
2022/01/18 08:30:01;;;;;;;3.50;1.45;;;;;;;4.87;40.30;101052.06;5109781;28;20042;-21
2022/01/18 08:32:26;;;;;;;2.85;1.48;;;;;;;4.88;39.08;101054.50;5109923;28;20387;-21
2022/01/18 08:34:51;;;;;;;2.70;1.30;;;;;;;5.08;40.74;101044.53;5109600;28;20054;-20
2022/01/18 08:37:17;;;;;;;3.50;1.30;;;;;;;4.97;40.66;101048.28;5109481;28;20031;-20
2022/01/18 08:39:42;;;;;;;2.35;1.15;;;;;;;5.11;39.93;101049.53;5091509;28;20032;-20
2022/01/18 08:42:08;;;;;;;3.72;1.75;;;;;;;5.19;40.34;101023.09;5109671;28;20518;-21
2022/01/18 08:44:35;;;;;;;4.22;1.30;;;;;;;5.52;41.30;101027.66;5108823;28;20039;-20
2022/01/18 08:47:00;;;;;;;3.33;1.67;;;;;;;5.27;40.18;101054.06;5109214;28;20042;-20
2022/01/18 08:49:26;;;;;;;2.65;1.20;;;;;;;4.97;40.83;101052.75;5109647;28;20031;-21
2022/01/18 08:51:51;;;;;;;2.55;1.30;;;;;;;5.45;40.15;101051.28;5109180;28;20531;-20
2022/01/18 08:54:17;;;;;;;3.63;1.52;;;;;;;5.14;40.11;101065.06;5109318;28;20043;-20
2022/01/18 08:56:42;;;;;;;2.45;1.17;;;;;;;5.08;40.06;101065.69;5109289;28;20031;-21
2022/01/18 08:59:07;;;;;;;2.83;1.33;;;;;;;5.32;41.26;101072.09;5109208;28;20436;-21
2022/01/18 09:01:33;;;;;;;3.25;1.17;;;;;;;5.68;40.81;101061.25;5090955;28;20023;-20
2022/01/18 09:04:01;;;;;;;3.33;1.48;;;;;;;5.93;39.09;101055.03;5090500;28;20043;-21
2022/01/18 09:06:28;;;;;;;4.65;1.65;;;;;;;5.80;40.17;101052.00;5108886;28;20055;-20
2022/01/18 09:08:57;;;;;;;4.63;1.52;;;;;;;5.97;39.63;101053.72;5109382;28;20035;-20
2022/01/18 09:11:24;;;;;;;5.68;1.67;;;;;;;6.02;38.87;101064.66;5109123;28;20754;-21
2022/01/18 09:13:51;;;;;;;3.92;2.00;;;;;;;5.47;40.34;101030.78;5109017;28;20036;-20
2022/01/18 09:16:18;;;;;;;5.18;2.10;;;;;;;5.74;40.16;101028.84;5109187;28;20034;-21
2022/01/18 09:18:44;;;;;;;3.65;1.42;;;;;;;5.86;38.36;101058.47;5109095;28;20108;-21
2022/01/18 09:21:09;;;;;;;3.50;1.40;;;;;;;5.65;38.29;101054.47;5108955;28;20035;-21
2022/01/18 09:23:37;;;;;;;4.07;1.10;;;;;;;6.02;38.54;101046.09;5108681;28;20043;-20
2022/01/18 09:26:02;;;;;;;3.67;1.27;;;;;;;6.30;38.62;101035.19;5108796;28;20026;-21
2022/01/18 09:28:28;;;;;;;2.85;1.20;;;;;;;6.22;37.38;101035.19;5108871;28;20758;-20
2022/01/18 09:30:53;;;;;;;3.33;1.67;;;;;;;6.15;37.73;101037.69;5108614;28;20024;-20
2022/01/18 09:33:19;;;;;;;3.33;1.30;;;;;;;6.35;38.30;101035.50;5108388;28;20031;-21
2022/01/18 09:35:44;;;;;;;3.35;1.55;;;;;;;6.75;37.31;101031.13;5108595;28;20079;-21
2022/01/18 09:38:10;;;;;;;4.38;1.77;;;;;;;6.82;37.23;101028.63;5108863;28;20027;-21
2022/01/18 09:40:39;;;;;;;4.63;1.80;;;;;;;6.95;37.22;101038.72;5108454;28;20035;-20
2022/01/18 09:43:09;;;;;;;3.10;1.40;;;;;;;6.31;36.35;101043.97;5108484;28;20448;-20
2022/01/18 09:45:35;;;;;;;5.57;1.50;;;;;;;5.96;36.83;101032.72;5108459;28;20110;-20
2022/01/18 09:48:00;;;;;;;3.63;1.63;;;;;;;6.41;36.79;101042.78;5108346;28;20036;-20
2022/01/18 09:50:29;;;;;;;5.32;2.30;;;;;;;6.53;37.37;101037.97;5108598;28;20089;-21
2022/01/18 09:52:55;;;;;;;5.32;1.83;;;;;;;6.63;36.56;101035.13;5108358;28;20035;-20
2022/01/18 09:55:23;;;;;;;3.88;2.08;;;;;;;6.44;36.91;101015.97;5108221;28;20558;-21
2022/01/18 09:57:49;;;;;;;4.00;1.40;;;;;;;6.66;35.62;101028.66;5108370;28;20027;-21
2022/01/18 10:00:15;;;;;;;3.83;1.42;;;;;;;6.82;35.45;101026.81;5108365;28;20506;-26
2022/01/18 10:02:41;;;;;;;7.03;2.03;;;;;;;6.80;35.21;101036.78;5108208;28;20048;-20
2022/01/18 10:05:37;;;;;;;4.70;1.90;;;;;;;7.07;36.04;101021.44;5108223;28;20035;-20
2022/01/18 10:08:08;;;;;;;7.32;1.90;;;;;;;7.22;36.41;100987.84;5086642;28;20043;-21
2022/01/18 10:10:54;;;;;;;4.05;1.90;;;;;;;7.37;35.35;101010.97;5089732;28;20035;-20
2022/01/18 10:13:23;;;;;;;8.15;2.97;;;;;;;7.60;35.72;101009.19;5107839;28;20032;-20
2022/01/18 10:16:01;;;;;;;4.70;1.98;;;;;;;7.33;34.11;101012.34;5108332;28;20027;-21
2022/01/18 10:18:37;;;;;;;4.85;1.92;;;;;;;7.25;35.60;101015.84;5107678;28;20854;-21
2022/01/18 10:21:05;;;;;;;5.15;2.15;;;;;;;7.18;34.45;100997.16;5107569;28;20111;-21
2022/01/18 10:23:31;;;;;;;4.85;2.40;;;;;;;7.38;33.70;101010.81;5107485;28;20088;-22
2022/01/18 10:25:56;;;;;;;3.63;1.40;;;;;;;7.60;33.13;100995.91;5089447;28;20031;-22
2022/01/18 10:28:32;;;;;;;3.30;1.52;;;;;;;7.64;33.99;101005.19;5107822;28;20039;-23
2022/01/18 10:31:03;;;;;;;13.88;4.85;;;;;;;7.56;33.65;101009.69;5107491;28;20027;-21
2022/01/18 10:33:35;;;;;;;3.75;1.40;;;;;;;7.51;33.32;101004.94;5107726;28;20027;-21
2022/01/18 10:36:14;;;;;;;5.65;1.85;;;;;;;7.48;33.74;100981.41;5107393;28;20031;-21
2022/01/18 10:38:41;;;;;;;3.65;1.70;;;;;;;7.32;33.25;101005.38;5107715;28;20550;-20
2022/01/18 10:41:34;;;;;;;2.47;1.40;;;;;;;7.63;32.78;100992.91;5107433;28;20092;-21
2022/01/18 10:44:13;;;;;;;8.65;2.75;;;;;;;7.54;32.88;100993.13;5107527;28;20067;-20
2022/01/18 10:46:43;;;;;;;13.68;4.65;;;;;;;7.74;33.39;100990.84;5107431;28;20495;-20
2022/01/18 10:49:08;;;;;;;21.00;7.03;;;;;;;8.19;33.35;100986.47;5107248;28;20031;-20
2022/01/18 10:51:36;;;;;;;7.40;2.97;;;;;;;8.18;32.56;100980.34;5107399;28;20140;-20
2022/01/18 10:54:04;;;;;;;10.47;4.17;;;;;;;8.22;31.50;100957.72;5107484;28;20031;-21
2022/01/18 10:56:43;;;;;;;13.38;4.50;;;;;;;8.24;32.79;100949.56;5107165;28;20430;-20
2022/01/18 10:59:19;;;;;;;9.38;3.45;;;;;;;8.38;34.31;100967.34;5107474;28;20035;-21
2022/01/18 11:01:44;;;;;;;6.22;2.40;;;;;;;8.00;33.68;100954.09;5090678;28;20031;-20
2022/01/18 11:04:15;;;;;;;4.93;2.17;;;;;;;8.42;34.61;100957.22;5107272;28;20396;-22
2022/01/18 11:06:43;;;;;;;4.30;1.60;;;;;;;7.78;33.75;100928.41;5089062;28;20058;-20
2022/01/18 11:09:15;;;;;;;6.80;2.10;;;;;;;7.90;34.43;100958.84;5092195;28;20525;-20
2022/01/18 11:11:45;;;;;;;5.88;1.85;;;;;;;7.53;34.79;100947.19;5111308;28;20261;-21
2022/01/18 11:14:12;;;;;;;3.33;1.60;;;;;;;7.58;36.04;100939.53;5111614;28;20112;-21
2022/01/18 11:16:42;;;;;;;4.25;1.85;;;;;;;7.98;35.27;100948.13;5111162;28;20065;-21
2022/01/18 11:19:16;;;;;;;5.38;1.85;;;;;;;8.08;34.64;100949.72;5111141;28;20051;-21
2022/01/18 11:21:43;;;;;;;4.10;1.73;;;;;;;7.95;33.61;100939.72;5111030;28;20039;-20
2022/01/18 11:24:08;;;;;;;5.93;2.10;;;;;;;7.91;32.96;100941.91;5093291;28;20126;-21
2022/01/18 11:26:33;;;;;;;6.75;1.90;;;;;;;7.90;32.48;100942.91;5076017;28;20102;-21
2022/01/18 11:28:59;;;;;;;4.85;2.00;;;;;;;8.23;33.44;100935.47;5092607;28;20047;-21
2022/01/18 11:31:24;;;;;;;4.72;1.92;;;;;;;8.10;33.14;100942.41;5092904;28;20042;-20
2022/01/18 11:33:55;;;;;;;3.35;1.42;;;;;;;8.15;33.20;100950.63;5111079;28;20117;-21
2022/01/18 11:36:22;;;;;;;4.65;1.83;;;;;;;8.59;33.79;100941.91;5092735;28;20031;-21
2022/01/18 11:39:00;;;;;;;3.87;1.90;;;;;;;8.38;33.80;100937.31;5076261;28;20495;-20
2022/01/18 11:41:27;;;;;;;4.03;1.90;;;;;;;8.11;34.50;100954.66;5076442;28;20277;-21
2022/01/18 11:43:55;;;;;;;4.50;1.95;;;;;;;8.18;33.26;100940.47;5092664;28;20069;-21
2022/01/18 11:46:31;;;;;;;2.85;1.60;;;;;;;7.71;32.31;100959.34;5110797;28;20027;-21
2022/01/18 11:49:28;;;;;;;4.18;1.63;;;;;;;8.38;34.25;100950.59;5110441;28;20032;-20
2022/01/18 11:52:03;;;;;;;2.92;1.40;;;;;;;8.53;32.33;100961.25;5090134;28;20495;-20
2022/01/18 11:56:57;;;;;;;6.45;2.40;;;;;;;8.77;32.99;100958.31;5110287;28;20039;-21
2022/01/18 11:59:27;;;;;;;2.22;1.40;;;;;;;8.16;31.84;100934.53;5110461;28;20020;-20
2022/01/18 12:01:53;;;;;;;3.60;2.15;;;;;;;8.39;32.02;100942.41;5110670;28;20042;-20
2022/01/18 12:07:09;;;;;;;3.28;1.70;;;;;;;8.61;32.29;100939.88;5110027;28;20023;-20
2022/01/18 12:09:40;;;;;;;5.25;2.42;;;;;;;8.37;31.55;100917.84;5091902;28;20075;-21
2022/01/18 12:12:09;;;;;;;3.58;1.70;;;;;;;8.49;31.11;100922.75;5110272;28;20039;-21
2022/01/18 12:14:34;;;;;;;4.57;2.10;;;;;;;8.59;31.95;100941.91;5110150;28;20028;-21
2022/01/18 12:17:12;;;;;;;4.03;1.77;;;;;;;8.48;31.56;100921.94;5109961;28;20038;-21
2022/01/18 12:19:44;;;;;;;;;;;;;;;8.51;31.94;100945.47;5109075;28;20043;-21
2022/01/18 12:22:11;;;;;;;3.78;1.75;;;;;;;8.51;33.13;100939.34;5109653;28;19924;-21
2022/01/18 12:24:36;;;;;;;10.43;3.92;;;;;;;8.77;33.00;100926.41;5110192;28;20032;-20
2022/01/18 12:27:31;;;;;;;4.10;1.98;;;;;;;9.25;32.46;100948.03;5091532;28;20038;-21
2022/01/18 12:30:36;;;;;;;3.88;2.10;;;;;;;8.36;33.56;100932.16;5109926;28;20134;-21
2022/01/18 12:33:17;;;;;;;3.20;1.77;;;;;;;8.74;32.91;100929.41;5109507;28;20053;-21
2022/01/18 12:35:43;;;;;;;6.00;2.78;;;;;;;8.65;33.31;100946.50;5109723;28;20028;-22
2022/01/18 12:38:10;;;;;;;5.18;2.85;;;;;;;8.66;32.98;100934.81;5074647;28;20092;-21
2022/01/18 12:40:42;;;;;;;7.25;2.35;;;;;;;8.91;31.83;100929.19;5091758;28;20035;-20
2022/01/18 12:45:36;;;;;;;6.43;2.70;;;;;;;9.57;32.80;100929.91;5109939;28;20031;-21
2022/01/18 12:48:09;;;;;;;4.43;2.00;;;;;;;9.41;32.16;100946.13;5109667;28;20035;-20
2022/01/18 12:50:39;;;;;;;6.03;2.38;;;;;;;9.70;31.30;100933.69;5109764;28;20036;-21